Aeroporto :
LOGIN :

Iscrizione | Disclaimer

   EN    FR    IT 

 










Sommario :    VFR   VFR Marginale   IFR   IFR Intensivo   IFR Molto Intensivo
Visibilità : 
Base nubi : 
>= 8 km
>= 3000ft
5 / 8 km
1000 / 3000 ft
1500m / 5 km
500 / 1000 ft
800 / 1500m
200 / 500 ft
< 800m
< 200 ft
Simboli :   Temporali  Nebbia  Neve Forte  Precipitazioni Forti  Vento > 20 kt
SIGMETs :   Varie  Temporali  Ghiacco  Turbolenza  Onda orograficha  Ceneri Vulcaniche






- Altitudine del aeroporto : 297 ft
- Codice IATA : UIP


LFRQ - Quimper Pluguffan

ULTIMO METAR :
  • 221630Z AUTO VRB01KT CAVOK 15/09 Q1021 NOSIG

METARs OBSOLETI :
  • 221600Z AUTO 17003KT 100V200 9999 FEW041 15/10 Q1021 NOSIG
  • 221530Z AUTO 34002KT CAVOK 15/07 Q1021 NOSIG
  • 221500Z AUTO 05002KT CAVOK 14/09 Q1021 NOSIG
  • 221430Z AUTO 02005KT 330V050 9999 BKN041 16/08 Q1021 NOSIG
  • 221400Z AUTO 06002KT CAVOK 15/06 Q1022 NOSIG

TAF TAF LFRQ
Valido dal 22 a 12 ore il 23 a 12 ore UTC


221100Z 2212/2312 VRB05KT CAVOK
BECMG 2221/2223 3000 BR NSC
PROB40
TEMPO 2300/2306 0500 FG BKN002
BECMG 2306/2308 03010KT 4000 RADZ OVC010



MetMap, La meteo Aeronautica in un colpo d'occhio ! - Copyright ORBIFLY Dicembre 2007 - Disclaimer

ORBIFLY MET'MAP TEAM :

Programmazione e sviluppo : Alexandra Zaïnal
Concezione e sviluppo : Baudouin d'Aumeries
Co-Programmazione e sviluppo : Marc-Olivier Méhu
Supporto tecnico e logistico : Manuel Goepfert
Aiuto per la traduzione : Arnaldo La Scala

Contatto : metmap@orbifly.com




FONTI E CREDITI :

   NOAA